Time;durP1;ratioP1;P1;durP2;ratioP2;P2;SDS_P1;SDS_P2;PMS_P1;PMS_P2;Temp;Humidity;BMP_temperature;BMP_pressure;BME280_temperature;BME280_humidity;BME280_pressure;Samples;Min_cycle;Max_cycle;Signal;HPM_P1;HPM_P2
2023/06/23 00:00:52;;;;;;;12.50;11.07;;;16.70;99.90;;;;;;5012893;28;20432;-68
2023/06/23 00:03:17;;;;;;;13.90;12.50;;;16.80;99.90;;;;;;5013361;28;20543;-68
2023/06/23 00:05:43;;;;;;;13.73;12.30;;;16.70;99.90;;;;;;5013021;28;20516;-69
2023/06/23 00:08:09;;;;;;;13.40;12.00;;;16.80;99.90;;;;;;5013213;28;20179;-68
2023/06/23 00:10:34;;;;;;;16.33;12.80;;;16.80;99.90;;;;;;5013063;28;20202;-69
2023/06/23 00:13:00;;;;;;;13.67;12.40;;;16.80;99.90;;;;;;5013212;28;20175;-69
2023/06/23 00:15:25;;;;;;;14.63;13.10;;;16.80;99.90;;;;;;5012797;28;20186;-70
2023/06/23 00:17:51;;;;;;;12.57;11.27;;;16.80;99.90;;;;;;5012744;28;20215;-68
2023/06/23 00:20:19;;;;;;;12.30;11.10;;;16.80;99.90;;;;;;5012770;28;20194;-68
2023/06/23 00:22:45;;;;;;;11.90;10.80;;;16.80;99.90;;;;;;5012710;28;20198;-69
2023/06/23 00:25:12;;;;;;;11.60;10.57;;;16.80;99.90;;;;;;5012679;28;20891;-67
2023/06/23 00:27:44;;;;;;;12.97;11.67;;;16.80;99.90;;;;;;5012358;28;20750;-68
2023/06/23 00:30:11;;;;;;;11.37;10.37;;;16.90;99.90;;;;;;5012461;28;20417;-70
2023/06/23 00:32:37;;;;;;;12.37;11.07;;;16.80;99.90;;;;;;5012651;28;20791;-69
2023/06/23 00:35:05;;;;;;;12.03;10.83;;;16.80;99.90;;;;;;5012369;28;20499;-68
2023/06/23 00:37:31;;;;;;;12.60;9.97;;;16.80;99.90;;;;;;5012990;28;20484;-69
2023/06/23 00:39:57;;;;;;;14.27;10.67;;;16.80;99.90;;;;;;5012183;28;20412;-69
2023/06/23 00:42:23;;;;;;;10.00;8.73;;;16.80;99.90;;;;;;5012705;28;20272;-69
2023/06/23 00:44:49;;;;;;;11.63;9.37;;;16.80;99.90;;;;;;5012474;28;20415;-69
2023/06/23 00:47:15;;;;;;;10.73;9.00;;;16.90;99.90;;;;;;5012260;28;20412;-69
2023/06/23 00:49:41;;;;;;;11.53;9.73;;;16.80;99.90;;;;;;5012590;28;20183;-68
2023/06/23 00:52:07;;;;;;;10.10;9.07;;;16.90;99.90;;;;;;5011833;28;20987;-68
2023/06/23 00:54:35;;;;;;;11.57;9.30;;;16.90;99.90;;;;;;5012205;28;20427;-69
2023/06/23 00:57:05;;;;;;;10.03;8.90;;;17.00;99.90;;;;;;5006649;28;20300;-70
2023/06/23 00:59:30;;;;;;;12.07;9.17;;;17.00;99.90;;;;;;5012429;28;20764;-72
2023/06/23 01:02:01;;;;;;;12.63;10.63;;;17.10;99.90;;;;;;5012109;28;20459;-70
2023/06/23 01:04:29;;;;;;;11.27;10.17;;;17.10;99.90;;;;;;5012096;28;20251;-68
2023/06/23 01:07:02;;;;;;;11.47;9.77;;;17.10;99.90;;;;;;5010564;28;20418;-71
2023/06/23 01:09:54;;;;;;;10.47;9.40;;;17.10;99.90;;;;;;5011829;28;20411;-69
2023/06/23 01:12:30;;;;;;;12.37;11.10;;;17.10;99.90;;;;;;5006659;28;20414;-68
2023/06/23 01:15:10;;;;;;;10.70;9.60;;;17.10;99.90;;;;;;5012081;28;20418;-71
2023/06/23 01:17:46;;;;;;;11.27;10.13;;;17.00;99.90;;;;;;5010613;28;20433;-69
2023/06/23 01:20:21;;;;;;;10.73;9.67;;;17.00;99.90;;;;;;5012285;28;20518;-70
2023/06/23 01:23:22;;;;;;;11.17;10.10;;;17.00;99.90;;;;;;5012282;28;20456;-70
2023/06/23 01:25:55;;;;;;;11.00;9.87;;;16.90;99.90;;;;;;5012245;28;20900;-71
2023/06/23 01:28:38;;;;;;;10.63;9.73;;;17.00;99.90;;;;;;4999180;28;20411;-67
2023/06/23 01:31:07;;;;;;;10.90;9.77;;;17.00;99.90;;;;;;5007103;28;20420;-69
2023/06/23 01:33:39;;;;;;;11.87;10.63;;;17.00;99.90;;;;;;5010164;28;20432;-69
2023/06/23 01:36:09;;;;;;;10.47;9.40;;;17.00;99.90;;;;;;5005850;28;20418;-69
2023/06/23 01:38:38;;;;;;;12.00;10.73;;;17.00;99.90;;;;;;5008739;28;20412;-70
2023/06/23 01:41:08;;;;;;;13.17;10.33;;;17.00;99.90;;;;;;5004175;28;20468;-72
2023/06/23 01:43:35;;;;;;;11.73;10.53;;;17.00;99.90;;;;;;5011744;28;20457;-70
2023/06/23 01:46:06;;;;;;;11.90;10.57;;;16.90;99.90;;;;;;5005498;28;20786;-70
2023/06/23 01:48:39;;;;;;;11.67;10.47;;;16.90;99.90;;;;;;5012311;28;20406;-72
2023/06/23 01:51:06;;;;;;;13.77;10.07;;;16.90;99.90;;;;;;5006503;28;20524;-71
2023/06/23 01:53:32;;;;;;;11.83;9.33;;;16.90;99.90;;;;;;5012276;28;20972;-68
2023/06/23 01:56:03;;;;;;;10.60;9.60;;;16.90;99.90;;;;;;5011256;28;20916;-71
2023/06/23 01:58:30;;;;;;;14.50;9.80;;;16.90;99.90;;;;;;5006719;28;20491;-70
2023/06/23 02:00:57;;;;;;;12.50;9.90;;;16.90;99.90;;;;;;5010935;28;20433;-69
2023/06/23 02:03:23;;;;;;;9.73;8.73;;;16.90;99.90;;;;;;5010751;28;21001;-71
2023/06/23 02:05:51;;;;;;;11.93;9.53;;;16.80;99.90;;;;;;5011492;28;20524;-69
2023/06/23 02:08:18;;;;;;;10.30;9.13;;;16.80;99.90;;;;;;5010374;28;20919;-70
2023/06/23 02:10:44;;;;;;;11.47;9.77;;;16.80;99.90;;;;;;5009615;28;20921;-70
2023/06/23 02:13:11;;;;;;;11.83;9.97;;;16.80;99.90;;;;;;5011452;28;20468;-70
2023/06/23 02:15:39;;;;;;;12.27;9.90;;;16.90;99.90;;;;;;5011289;28;20427;-71
2023/06/23 02:18:05;;;;;;;13.77;9.93;;;16.90;99.90;;;;;;5011406;28;20529;-69
2023/06/23 02:20:32;;;;;;;10.93;9.07;;;16.90;99.90;;;;;;5011436;28;20437;-70
2023/06/23 02:22:59;;;;;;;11.47;10.27;;;16.80;99.90;;;;;;5011880;28;20547;-68
2023/06/23 02:25:25;;;;;;;10.50;9.50;;;16.80;99.90;;;;;;5011330;28;20512;-69
2023/06/23 02:27:51;;;;;;;12.63;9.53;;;16.80;99.90;;;;;;5011587;28;20462;-69
2023/06/23 02:30:17;;;;;;;14.00;10.90;;;16.90;99.90;;;;;;5011086;28;20445;-69
2023/06/23 02:32:45;;;;;;;14.53;10.17;;;16.80;99.90;;;;;;5011184;28;20772;-69
2023/06/23 02:35:14;;;;;;;12.20;10.70;;;16.80;99.90;;;;;;5011291;28;20406;-68
2023/06/23 02:37:43;;;;;;;11.40;9.93;;;16.70;99.90;;;;;;5009207;28;20444;-72
2023/06/23 02:40:16;;;;;;;10.37;9.30;;;16.70;99.90;;;;;;5004472;28;20435;-69
2023/06/23 02:42:51;;;;;;;10.33;9.33;;;16.70;99.90;;;;;;5010861;28;20849;-69
2023/06/23 02:45:19;;;;;;;10.70;9.60;;;16.60;99.90;;;;;;5007241;28;20419;-68
2023/06/23 02:47:48;;;;;;;12.87;9.63;;;16.60;99.90;;;;;;5003603;28;20415;-69
2023/06/23 02:50:18;;;;;;;12.63;10.13;;;16.60;99.90;;;;;;5010902;28;20807;-69
2023/06/23 02:52:47;;;;;;;11.20;10.10;;;16.60;99.90;;;;;;5010992;28;20429;-71
2023/06/23 02:55:18;;;;;;;12.60;10.00;;;16.60;99.90;;;;;;5009590;28;20433;-69
2023/06/23 02:57:48;;;;;;;11.70;10.43;;;16.60;99.90;;;;;;5009540;28;20417;-68
2023/06/23 03:00:19;;;;;;;15.20;11.07;;;16.60;99.90;;;;;;5004517;28;20438;-69
2023/06/23 03:02:49;;;;;;;12.40;11.20;;;16.60;99.90;;;;;;5005223;28;20462;-68
2023/06/23 03:05:16;;;;;;;14.80;13.20;;;16.60;99.90;;;;;;5003039;28;20413;-68
2023/06/23 03:07:42;;;;;;;12.63;11.30;;;16.70;99.90;;;;;;5010545;28;20843;-69
2023/06/23 03:10:08;;;;;;;13.43;12.03;;;16.70;99.90;;;;;;5010497;28;20417;-69
2023/06/23 03:12:34;;;;;;;15.23;12.20;;;16.70;99.90;;;;;;5011297;28;20587;-69
2023/06/23 03:15:01;;;;;;;12.77;11.30;;;16.70;99.90;;;;;;5011283;28;20463;-69
2023/06/23 03:17:30;;;;;;;13.80;11.43;;;16.70;99.90;;;;;;5012186;28;20923;-71
2023/06/23 03:20:24;;;;;;;11.70;10.33;;;16.70;99.90;;;;;;5014617;28;20416;-71
2023/06/23 03:22:57;;;;;;;11.20;9.97;;;16.70;99.90;;;;;;5013311;28;20538;-69
2023/06/23 03:25:28;;;;;;;11.50;10.40;;;16.70;99.90;;;;;;5014614;28;20410;-70
2023/06/23 03:27:57;;;;;;;12.23;11.03;;;16.70;99.90;;;;;;5014639;28;20777;-69
2023/06/23 03:30:29;;;;;;;13.53;11.30;;;16.70;99.90;;;;;;5014142;28;20520;-69
2023/06/23 03:33:02;;;;;;;12.47;10.83;;;16.80;99.90;;;;;;5014495;28;20424;-70
2023/06/23 03:35:33;;;;;;;12.07;10.87;;;16.80;99.90;;;;;;5014585;28;20414;-69
2023/06/23 03:38:03;;;;;;;14.23;12.73;;;16.80;99.90;;;;;;5006896;28;20416;-68
2023/06/23 03:40:36;;;;;;;13.00;11.60;;;16.90;99.90;;;;;;5013900;28;20448;-68
2023/06/23 03:43:08;;;;;;;14.63;12.30;;;16.90;99.90;;;;;;5011359;28;20444;-69
2023/06/23 03:45:35;;;;;;;12.17;10.80;;;16.90;99.90;;;;;;5014200;28;20860;-69
2023/06/23 03:48:08;;;;;;;14.80;12.23;;;16.90;99.90;;;;;;5007378;28;20405;-70
2023/06/23 03:50:37;;;;;;;13.10;11.70;;;16.90;99.90;;;;;;5013914;28;20825;-71
2023/06/23 03:53:05;;;;;;;15.40;11.87;;;17.00;99.90;;;;;;5012242;28;20456;-68
2023/06/23 03:55:35;;;;;;;14.80;12.43;;;17.00;99.90;;;;;;5013222;28;20464;-68
2023/06/23 03:58:05;;;;;;;16.33;13.27;;;17.10;99.90;;;;;;5013564;28;20414;-70
2023/06/23 04:00:33;;;;;;;14.00;12.60;;;17.10;99.90;;;;;;5013710;28;20498;-68
2023/06/23 04:03:00;;;;;;;16.80;14.33;;;17.10;99.90;;;;;;5013107;28;20464;-68
2023/06/23 04:05:30;;;;;;;15.70;12.70;;;17.10;99.90;;;;;;5011910;28;20762;-69
2023/06/23 04:08:00;;;;;;;14.13;12.43;;;17.20;99.90;;;;;;5013368;28;20414;-67
2023/06/23 04:10:27;;;;;;;18.77;12.70;;;17.10;99.90;;;;;;5013298;28;20434;-68
2023/06/23 04:12:54;;;;;;;13.63;12.00;;;17.20;99.90;;;;;;5013302;28;20544;-68
2023/06/23 04:15:23;;;;;;;14.60;12.40;;;17.20;99.90;;;;;;5007956;28;20425;-68
2023/06/23 04:17:51;;;;;;;15.10;13.00;;;17.10;99.90;;;;;;5013188;28;20411;-69
2023/06/23 04:20:18;;;;;;;15.30;13.57;;;17.20;99.90;;;;;;5012999;28;20480;-72
2023/06/23 04:22:45;;;;;;;21.50;15.40;;;17.20;99.90;;;;;;5013108;28;20950;-69
2023/06/23 04:25:13;;;;;;;14.83;13.03;;;17.20;99.90;;;;;;5012054;28;20410;-71
2023/06/23 04:27:41;;;;;;;17.13;14.90;;;17.20;99.90;;;;;;5012890;28;20411;-68
2023/06/23 04:30:09;;;;;;;15.27;13.77;;;17.20;99.90;;;;;;5011125;28;20422;-69
2023/06/23 04:32:37;;;;;;;16.60;13.17;;;17.30;99.90;;;;;;5013050;28;20783;-69
2023/06/23 04:35:03;;;;;;;16.90;13.17;;;17.20;99.90;;;;;;5012699;28;20488;-72
2023/06/23 04:37:48;;;;;;;14.53;12.00;;;17.20;99.90;;;;;;5008717;28;20422;-70
2023/06/23 04:40:17;;;;;;;14.67;12.20;;;17.10;99.90;;;;;;5007599;28;20821;-69
2023/06/23 04:42:53;;;;;;;18.90;15.70;;;17.10;99.90;;;;;;5046251;23;21075;-70
2023/06/23 04:45:23;;;;;;;15.43;12.27;;;17.20;99.90;;;;;;5033177;28;20421;-70
2023/06/23 04:47:56;;;;;;;15.77;13.30;;;17.20;99.90;;;;;;5033095;28;20416;-73
2023/06/23 04:50:25;;;;;;;14.50;13.00;;;17.20;99.90;;;;;;5033288;28;20773;-70
2023/06/23 04:52:55;;;;;;;14.20;12.30;;;17.10;99.90;;;;;;5031976;28;20545;-69
2023/06/23 04:55:29;;;;;;;16.60;13.87;;;17.10;99.90;;;;;;5031884;28;20469;-70
2023/06/23 04:57:57;;;;;;;15.10;13.50;;;17.10;99.90;;;;;;5033173;28;20409;-69
2023/06/23 05:00:25;;;;;;;14.13;12.63;;;17.10;99.90;;;;;;5031853;28;20414;-70
2023/06/23 05:02:52;;;;;;;14.30;12.63;;;17.10;99.90;;;;;;5033148;28;20970;-70
2023/06/23 05:05:23;;;;;;;17.70;14.17;;;17.10;99.90;;;;;;5032936;28;20887;-72
2023/06/23 05:07:52;;;;;;;12.93;11.63;;;17.10;99.90;;;;;;5033082;28;20412;-71
2023/06/23 05:10:20;;;;;;;15.17;11.80;;;17.10;99.90;;;;;;5031761;28;20834;-70
2023/06/23 05:12:49;;;;;;;15.30;13.70;;;17.10;99.90;;;;;;5033287;28;20449;-71
2023/06/23 05:15:20;;;;;;;14.33;12.83;;;17.10;99.90;;;;;;5032833;28;20456;-71
2023/06/23 05:17:48;;;;;;;16.70;11.97;;;17.10;99.90;;;;;;5032676;28;20425;-71
2023/06/23 05:20:19;;;;;;;14.13;12.07;;;17.00;99.90;;;;;;5034783;28;20470;-72
2023/06/23 05:22:46;;;;;;;11.97;10.63;;;17.10;99.90;;;;;;5033735;28;20511;-72
2023/06/23 05:25:14;;;;;;;14.50;12.00;;;17.20;99.90;;;;;;5031871;28;20479;-70
2023/06/23 05:27:44;;;;;;;18.10;13.50;;;17.20;99.90;;;;;;5032688;28;20932;-70
2023/06/23 05:30:16;;;;;;;13.47;12.17;;;17.20;99.90;;;;;;5032670;28;20502;-70
2023/06/23 05:32:43;;;;;;;13.77;12.37;;;17.10;99.90;;;;;;5031360;28;21028;-70
2023/06/23 05:35:10;;;;;;;15.17;13.57;;;17.00;99.90;;;;;;5032288;28;20417;-71
2023/06/23 05:37:39;;;;;;;14.70;13.20;;;17.00;99.90;;;;;;5030040;28;20430;-70
2023/06/23 05:40:06;;;;;;;14.23;12.80;;;17.10;99.90;;;;;;5024891;28;20409;-72
2023/06/23 05:42:32;;;;;;;15.47;13.80;;;17.10;99.90;;;;;;5031171;28;21014;-70
2023/06/23 05:45:00;;;;;;;18.00;15.07;;;17.00;99.90;;;;;;5032238;28;20419;-70
2023/06/23 05:47:33;;;;;;;15.67;13.77;;;17.10;99.90;;;;;;5032386;28;20412;-70
2023/06/23 05:50:01;;;;;;;16.37;14.67;;;17.10;99.90;;;;;;5031974;28;20482;-73
2023/06/23 05:52:33;;;;;;;17.20;13.93;;;17.10;99.90;;;;;;5032537;28;20893;-69
2023/06/23 05:55:00;;;;;;;16.83;14.87;;;17.10;99.90;;;;;;5031878;28;20424;-73
2023/06/23 05:57:29;;;;;;;16.23;13.27;;;17.10;99.90;;;;;;5032314;28;20911;-70
2023/06/23 06:00:11;;;;;;;19.70;15.00;;;17.10;99.90;;;;;;5116229;27;20505;-71
2023/06/23 06:02:40;;;;;;;16.77;15.07;;;17.20;99.90;;;;;;5108467;28;20474;-70
2023/06/23 06:05:08;;;;;;;20.17;15.70;;;17.20;99.90;;;;;;5099963;28;20856;-69
2023/06/23 06:07:38;;;;;;;17.57;15.07;;;17.20;99.90;;;;;;5108500;28;20464;-69
2023/06/23 06:10:06;;;;;;;17.63;14.63;;;17.20;99.90;;;;;;5092943;28;20404;-74
2023/06/23 06:12:34;;;;;;;20.60;14.87;;;17.10;99.90;;;;;;5107456;28;20953;-70
2023/06/23 06:15:01;;;;;;;19.30;15.63;;;17.20;99.90;;;;;;5089500;28;20411;-73
2023/06/23 06:17:29;;;;;;;17.47;14.40;;;17.20;99.90;;;;;;5103105;28;20811;-70
2023/06/23 06:19:59;;;;;;;17.90;14.17;;;17.30;99.90;;;;;;5104034;28;20457;-72
2023/06/23 06:22:26;;;;;;;15.90;13.97;;;17.30;99.90;;;;;;5101093;28;20428;-70
2023/06/23 06:24:53;;;;;;;16.40;14.60;;;17.30;99.90;;;;;;5100209;28;20419;-73
2023/06/23 06:27:21;;;;;;;19.03;15.90;;;17.20;99.90;;;;;;5102641;28;20419;-71
2023/06/23 06:29:49;;;;;;;16.43;14.70;;;17.30;99.90;;;;;;5100159;28;20444;-71
2023/06/23 06:32:16;;;;;;;16.90;13.80;;;17.30;99.90;;;;;;5107141;28;20520;-71
2023/06/23 06:34:43;;;;;;;19.37;15.23;;;17.40;99.90;;;;;;5098871;28;20416;-70
2023/06/23 06:37:10;;;;;;;20.07;15.63;;;17.40;99.90;;;;;;5102713;28;20418;-71
2023/06/23 06:39:37;;;;;;;17.03;14.50;;;17.50;99.90;;;;;;5100540;28;20449;-69
2023/06/23 06:42:03;;;;;;;14.77;13.27;;;17.50;99.90;;;;;;5100020;28;20430;-69
2023/06/23 06:44:29;;;;;;;17.53;15.10;;;17.60;99.90;;;;;;5104169;28;20397;-70
2023/06/23 06:46:55;;;;;;;15.50;13.90;;;17.70;99.90;;;;;;5100050;28;20418;-72
2023/06/23 06:49:24;;;;;;;18.97;16.37;;;17.60;99.90;;;;;;5102495;28;20546;-72
2023/06/23 06:51:51;;;;;;;15.40;13.90;;;17.60;99.90;;;;;;5108457;28;20975;-71
2023/06/23 06:54:17;;;;;;;14.97;13.57;;;17.50;99.90;;;;;;5104033;28;20505;-70
2023/06/23 06:56:44;;;;;;;16.47;14.87;;;17.60;99.90;;;;;;5106531;28;20592;-70
2023/06/23 06:59:10;;;;;;;16.37;14.53;;;17.60;99.90;;;;;;5099937;28;20450;-71
2023/06/23 07:01:37;;;;;;;17.00;15.30;;;17.60;99.90;;;;;;5102133;28;20502;-70
2023/06/23 07:04:04;;;;;;;16.33;13.87;;;17.60;99.90;;;;;;5097387;28;20966;-71
2023/06/23 07:06:31;;;;;;;18.60;15.60;;;17.60;99.90;;;;;;5099559;28;20412;-70
2023/06/23 07:08:57;;;;;;;19.20;15.60;;;17.70;99.90;;;;;;5099453;28;20754;-70
2023/06/23 07:11:22;;;;;;;17.73;15.83;;;17.80;99.90;;;;;;5094522;28;20421;-69
2023/06/23 07:13:48;;;;;;;17.30;15.60;;;17.70;99.90;;;;;;5084340;28;20480;-71
2023/06/23 07:16:15;;;;;;;19.03;15.10;;;17.70;99.90;;;;;;5084590;28;20177;-70
2023/06/23 07:18:41;;;;;;;16.87;15.17;;;17.90;99.90;;;;;;5090463;28;20627;-68
2023/06/23 07:21:09;;;;;;;17.83;15.93;;;17.90;99.90;;;;;;5085998;28;20411;-70
2023/06/23 07:23:34;;;;;;;17.40;15.60;;;17.90;99.90;;;;;;5085823;28;20817;-71
2023/06/23 07:26:00;;;;;;;16.80;13.70;;;17.90;99.90;;;;;;5089570;28;20411;-70
2023/06/23 07:28:25;;;;;;;19.53;15.10;;;17.90;99.90;;;;;;5086066;28;20185;-68
2023/06/23 07:30:51;;;;;;;15.67;14.17;;;17.80;99.90;;;;;;5091457;28;20639;-69
2023/06/23 07:33:17;;;;;;;14.37;12.93;;;17.80;99.90;;;;;;5085905;28;20189;-71
2023/06/23 07:35:43;;;;;;;16.53;13.07;;;17.80;99.90;;;;;;5090136;28;20180;-72
2023/06/23 07:38:09;;;;;;;16.43;14.70;;;17.70;99.90;;;;;;5088077;28;20188;-71
2023/06/23 07:40:34;;;;;;;15.80;14.20;;;17.80;99.90;;;;;;5085685;28;20770;-74
2023/06/23 07:43:00;;;;;;;15.97;14.43;;;17.70;99.90;;;;;;5084942;28;20268;-68
2023/06/23 07:45:25;;;;;;;18.67;15.10;;;17.70;99.90;;;;;;5088231;28;20184;-68
2023/06/23 07:47:51;;;;;;;15.20;13.57;;;17.80;99.90;;;;;;5091211;28;20185;-69
2023/06/23 07:50:17;;;;;;;17.87;14.10;;;17.70;99.90;;;;;;5087498;28;20647;-69
2023/06/23 07:52:45;;;;;;;15.20;13.60;;;17.80;99.90;;;;;;5091216;28;20279;-68
2023/06/23 07:55:18;;;;;;;16.40;14.67;;;17.60;99.90;;;;;;5089557;28;20219;-68
2023/06/23 07:57:44;;;;;;;15.40;13.87;;;17.70;99.90;;;;;;5091946;28;20407;-68
2023/06/23 08:00:10;;;;;;;17.00;15.23;;;17.60;99.90;;;;;;5087702;28;20476;-69
2023/06/23 08:02:35;;;;;;;15.93;14.33;;;17.60;99.90;;;;;;5088228;28;20274;-70
2023/06/23 08:05:01;;;;;;;16.80;14.70;;;17.60;99.90;;;;;;5082193;28;20879;-71
2023/06/23 08:07:27;;;;;;;15.97;14.13;;;17.60;99.90;;;;;;5084952;28;20169;-70
2023/06/23 08:09:52;;;;;;;15.37;13.83;;;17.50;99.90;;;;;;5083424;28;20174;-70
2023/06/23 08:12:18;;;;;;;16.00;14.30;;;17.60;99.90;;;;;;5071897;28;20257;-68
2023/06/23 08:14:43;;;;;;;15.00;13.43;;;17.60;99.90;;;;;;5089577;28;20186;-71
2023/06/23 08:17:09;;;;;;;14.70;13.27;;;17.60;99.90;;;;;;5088264;28;20257;-69
2023/06/23 08:19:35;;;;;;;15.40;13.67;;;17.50;99.90;;;;;;5089972;28;20267;-72
2023/06/23 08:22:03;;;;;;;12.47;11.27;;;17.60;99.90;;;;;;5079835;28;20557;-68
2023/06/23 08:24:31;;;;;;;14.43;13.10;;;17.50;99.90;;;;;;5087898;28;20407;-68
2023/06/23 08:26:57;;;;;;;15.07;13.50;;;17.50;99.90;;;;;;5089746;28;20407;-68
2023/06/23 08:29:22;;;;;;;15.20;13.63;;;17.50;99.90;;;;;;5085382;28;20506;-68
2023/06/23 08:31:48;;;;;;;15.93;14.27;;;17.70;99.90;;;;;;5089222;28;20254;-68
2023/06/23 08:34:14;;;;;;;15.63;13.30;;;17.60;99.90;;;;;;5080878;28;20738;-68
2023/06/23 08:36:39;;;;;;;16.43;13.57;;;17.60;99.90;;;;;;5089297;28;20242;-68
2023/06/23 08:39:05;;;;;;;16.53;14.80;;;17.60;99.90;;;;;;5083300;28;20211;-68
2023/06/23 08:41:33;;;;;;;15.40;13.83;;;17.70;99.90;;;;;;5080767;28;20625;-68
2023/06/23 08:44:01;;;;;;;16.53;13.37;;;17.70;99.90;;;;;;5089365;28;20200;-70
2023/06/23 08:46:31;;;;;;;17.13;15.43;;;17.80;99.90;;;;;;5090520;28;20493;-71
2023/06/23 08:49:01;;;;;;;16.80;15.10;;;17.70;99.90;;;;;;5089422;28;20417;-69
2023/06/23 08:51:27;;;;;;;18.73;16.73;;;17.90;99.90;;;;;;5090699;28;20909;-72
2023/06/23 08:53:52;;;;;;;16.90;15.17;;;17.90;99.90;;;;;;5088428;28;20451;-71
2023/06/23 08:56:18;;;;;;;19.40;17.30;;;17.80;99.90;;;;;;5084159;28;20410;-70
2023/06/23 08:58:44;;;;;;;19.43;17.43;;;17.80;99.90;;;;;;5083680;28;20273;-70
2023/06/23 09:01:10;;;;;;;19.43;16.97;;;17.70;99.90;;;;;;5084011;28;20214;-70
2023/06/23 09:03:35;;;;;;;24.03;21.30;;;17.70;99.90;;;;;;5086581;28;20498;-71
2023/06/23 09:06:01;;;;;;;23.50;20.40;;;17.50;99.90;;;;;;5084126;28;20540;-71
2023/06/23 09:08:27;;;;;;;22.27;19.97;;;17.50;99.90;;;;;;5091594;28;20287;-72
2023/06/23 09:10:53;;;;;;;23.80;21.30;;;17.40;99.90;;;;;;5084401;28;20200;-70
2023/06/23 09:13:23;;;;;;;23.83;21.13;;;17.40;99.90;;;;;;5085205;28;20188;-70
2023/06/23 09:15:49;;;;;;;23.90;21.40;;;17.40;99.90;;;;;;5082954;28;20626;-70
2023/06/23 09:18:16;;;;;;;24.57;22.03;;;17.50;99.90;;;;;;5084356;28;20462;-73
2023/06/23 09:20:49;;;;;;;21.47;18.90;;;17.40;99.90;;;;;;5087242;28;20406;-71
2023/06/23 09:23:23;;;;;;;22.10;19.17;;;17.30;99.90;;;;;;5083557;28;20960;-70
2023/06/23 09:25:50;;;;;;;22.60;20.30;;;17.30;99.90;;;;;;5089941;28;20404;-71
2023/06/23 09:28:36;;;;;;;24.00;21.07;;;17.30;99.90;;;;;;5083576;28;20430;-71
2023/06/23 09:31:13;;;;;;;22.40;20.00;;;17.40;99.90;;;;;;5089755;28;20410;-73
2023/06/23 09:33:53;;;;;;;26.10;23.10;;;17.40;99.90;;;;;;5082862;28;20770;-70
2023/06/23 09:36:19;;;;;;;26.40;23.57;;;17.40;99.90;;;;;;5080303;28;20410;-70
2023/06/23 09:38:46;;;;;;;25.60;21.33;;;17.40;99.90;;;;;;5080434;28;20458;-70
2023/06/23 09:41:16;;;;;;;29.77;25.73;;;17.50;99.90;;;;;;5071511;28;20403;-69
2023/06/23 09:43:50;;;;;;;27.50;24.60;;;17.50;99.90;;;;;;5086443;28;20407;-69
2023/06/23 09:46:17;;;;;;;29.10;23.67;;;17.40;99.90;;;;;;5086825;28;20424;-70
2023/06/23 09:48:45;;;;;;;32.03;25.97;;;17.50;99.90;;;;;;5089722;28;20418;-70
2023/06/23 09:51:12;;;;;;;30.70;27.13;;;17.40;99.90;;;;;;5087932;28;20418;-69
2023/06/23 09:53:39;;;;;;;30.07;26.77;;;17.50;99.90;;;;;;5085601;28;20414;-69
2023/06/23 09:56:07;;;;;;;32.40;26.63;;;17.60;99.90;;;;;;5089867;28;20740;-69
2023/06/23 09:58:38;;;;;;;29.50;26.37;;;17.50;99.90;;;;;;5086619;28;20460;-69
2023/06/23 10:01:07;;;;;;;32.20;28.80;;;17.40;99.90;;;;;;5052861;28;20448;-68
2023/06/23 10:03:50;;;;;;;32.37;28.70;;;17.40;99.90;;;;;;5084550;28;20415;-69
2023/06/23 10:06:34;;;;;;;32.90;29.30;;;17.40;99.90;;;;;;5079559;28;20946;-69
2023/06/23 10:09:02;;;;;;;31.77;28.30;;;17.40;99.90;;;;;;5082545;28;20419;-68
2023/06/23 10:11:35;;;;;;;31.40;27.77;;;17.30;99.90;;;;;;5086059;28;20997;-69
2023/06/23 10:14:11;;;;;;;31.10;27.33;;;17.30;99.90;;;;;;5080875;28;20832;-72
2023/06/23 10:16:43;;;;;;;33.77;27.93;;;17.40;99.90;;;;;;5082742;28;20415;-69
2023/06/23 10:19:09;;;;;;;29.70;26.50;;;17.50;99.90;;;;;;5084228;28;20997;-73
2023/06/23 10:21:36;;;;;;;31.70;27.47;;;17.50;99.90;;;;;;5082892;28;20427;-72
2023/06/23 10:24:08;;;;;;;32.57;26.50;;;17.40;99.90;;;;;;5087455;28;20447;-70
2023/06/23 10:26:36;;;;;;;29.37;26.37;;;17.50;99.90;;;;;;5091514;28;20830;-70
2023/06/23 10:29:07;;;;;;;28.40;25.37;;;17.60;99.90;;;;;;5077715;28;20477;-70
2023/06/23 10:31:34;;;;;;;29.57;26.37;;;17.60;99.90;;;;;;5089946;28;20469;-69
2023/06/23 10:34:04;;;;;;;26.83;24.10;;;17.60;99.90;;;;;;5072957;28;20415;-70
2023/06/23 10:36:31;;;;;;;27.43;23.90;;;17.60;99.90;;;;;;5087728;28;20411;-72
2023/06/23 10:39:00;;;;;;;26.83;24.00;;;17.60;99.90;;;;;;5079567;28;20444;-70
2023/06/23 10:41:27;;;;;;;26.17;23.20;;;17.60;99.90;;;;;;5074693;28;20427;-70
2023/06/23 10:43:55;;;;;;;22.73;20.33;;;17.70;99.90;;;;;;5086979;22;20486;-71
2023/06/23 10:46:22;;;;;;;22.80;20.47;;;17.70;99.90;;;;;;5073282;28;20412;-70
2023/06/23 10:48:49;;;;;;;24.67;22.20;;;17.70;99.90;;;;;;5073782;28;20442;-70
2023/06/23 10:51:15;;;;;;;24.60;22.10;;;17.80;99.90;;;;;;5073615;28;20455;-71
2023/06/23 10:53:50;;;;;;;22.70;20.00;;;17.90;99.90;;;;;;5073687;28;20516;-70
2023/06/23 10:56:36;;;;;;;21.67;19.67;;;17.90;99.90;;;;;;5073499;28;20176;-71
2023/06/23 10:59:17;;;;;;;22.33;20.23;;;17.80;99.90;;;;;;5066451;28;20460;-71
2023/06/23 11:02:01;;;;;;;20.80;18.67;;;17.70;99.90;;;;;;5071196;28;20400;-71
2023/06/23 11:04:28;;;;;;;22.43;20.03;;;17.60;99.90;;;;;;5073379;28;20416;-71
2023/06/23 11:07:07;;;;;;;20.40;18.03;;;17.50;99.90;;;;;;5073317;28;20401;-71
2023/06/23 11:10:01;;;;;;;20.40;17.70;;;17.60;99.90;;;;;;5073182;28;20421;-70
2023/06/23 11:12:36;;;;;;;20.00;17.97;;;17.50;99.90;;;;;;5069148;28;20768;-70
2023/06/23 11:15:27;;;;;;;20.33;17.97;;;17.50;99.90;;;;;;5071271;28;20761;-70
2023/06/23 11:18:04;;;;;;;23.10;15.90;;;17.50;99.90;;;;;;5073185;28;20460;-70
2023/06/23 11:20:32;;;;;;;18.23;16.37;;;17.60;99.90;;;;;;5069292;28;20422;-71
2023/06/23 11:23:00;;;;;;;16.93;15.23;;;17.50;99.90;;;;;;5072993;28;20943;-70
2023/06/23 11:25:48;;;;;;;19.47;17.40;;;17.60;99.90;;;;;;5072803;28;20418;-72
2023/06/23 11:28:33;;;;;;;16.93;15.30;;;17.60;99.90;;;;;;5067727;28;20404;-71
2023/06/23 11:31:14;;;;;;;19.23;17.30;;;17.50;99.90;;;;;;5073138;28;20440;-72
2023/06/23 11:33:44;;;;;;;19.83;17.80;;;17.50;99.90;;;;;;5072696;28;20519;-72
2023/06/23 11:36:19;;;;;;;18.73;16.83;;;17.60;99.90;;;;;;5072754;28;20473;-71
2023/06/23 11:38:44;;;;;;;18.23;16.47;;;17.50;99.90;;;;;;5072544;28;20547;-70
2023/06/23 11:41:13;;;;;;;18.30;16.43;;;17.40;99.90;;;;;;5072858;28;20868;-70
2023/06/23 11:43:38;;;;;;;20.13;17.30;;;17.50;99.90;;;;;;5072453;28;20263;-72
2023/06/23 11:46:06;;;;;;;19.87;17.77;;;17.50;99.90;;;;;;5072765;28;20994;-72
2023/06/23 11:48:32;;;;;;;20.57;18.37;;;17.60;99.90;;;;;;5072559;28;20196;-72
2023/06/23 11:50:59;;;;;;;20.73;18.63;;;17.50;99.90;;;;;;5072277;28;20417;-72
2023/06/23 11:53:26;;;;;;;19.83;17.93;;;17.60;99.90;;;;;;5072735;28;20488;-72
2023/06/23 11:55:52;;;;;;;18.70;16.87;;;17.60;99.90;;;;;;5072554;28;20417;-72
2023/06/23 11:58:18;;;;;;;19.77;17.70;;;17.60;99.90;;;;;;5073023;28;20451;-72
2023/06/23 12:00:44;;;;;;;22.30;19.60;;;17.60;99.90;;;;;;5072798;28;20473;-72
2023/06/23 12:03:16;;;;;;;23.93;21.03;;;17.60;99.90;;;;;;5072903;28;20539;-72
2023/06/23 12:05:42;;;;;;;24.37;20.60;;;17.60;99.90;;;;;;5072685;28;20570;-72
2023/06/23 12:08:09;;;;;;;24.97;22.37;;;17.60;99.90;;;;;;5072381;28;20487;-73
2023/06/23 12:10:36;;;;;;;21.83;19.63;;;17.60;99.90;;;;;;5072371;28;20501;-73
2023/06/23 12:13:02;;;;;;;20.30;18.27;;;17.50;99.90;;;;;;5070294;28;21177;-72
2023/06/23 12:15:29;;;;;;;17.43;15.40;;;17.50;99.90;;;;;;5072018;28;20910;-73
2023/06/23 12:17:57;;;;;;;14.70;13.27;;;17.50;99.90;;;;;;5071827;28;20767;-72
2023/06/23 12:20:23;;;;;;;14.27;12.63;;;17.50;99.90;;;;;;5072073;28;20400;-73
2023/06/23 12:22:51;;;;;;;13.50;12.10;;;17.50;99.90;;;;;;5071905;28;20442;-72
2023/06/23 12:25:20;;;;;;;14.83;12.67;;;17.30;99.90;;;;;;5072105;28;20636;-72
2023/06/23 12:27:54;;;;;;;14.70;11.67;;;17.20;99.90;;;;;;5072268;28;20408;-73
2023/06/23 12:30:21;;;;;;;15.70;11.90;;;17.20;99.90;;;;;;5066802;28;20414;-72
2023/06/23 12:32:47;;;;;;;12.53;10.77;;;17.00;99.90;;;;;;5071921;28;20762;-72
2023/06/23 12:35:16;;;;;;;14.20;11.30;;;16.90;99.90;;;;;;5071505;28;20410;-72
2023/06/23 12:37:47;;;;;;;11.03;9.77;;;16.80;99.90;;;;;;5071751;28;20176;-71